Time;durP1;ratioP1;P1;durP2;ratioP2;P2;SDS_P1;SDS_P2;PMS_P1;PMS_P2;Temp;Humidity;BMP_temperature;BMP_pressure;BME280_temperature;BME280_humidity;BME280_pressure;Samples;Min_cycle;Max_cycle;Signal;HPM_P1;HPM_P2
2023/03/19 00:00:40;;;;;;;9.15;4.10;;;;;;;;;;5051044;28;20308;-66
2023/03/19 00:03:06;;;;;;;6.28;3.90;;;;;;;;;;5050289;28;20096;-66
2023/03/19 00:05:31;;;;;;;5.90;3.83;;;;;;;;;;5050635;28;20025;-70
2023/03/19 00:07:57;;;;;;;6.60;3.55;;;;;;;;;;5051151;28;20025;-68
2023/03/19 00:10:22;;;;;;;5.40;3.10;;;;;;;;;;5050897;28;20106;-66
2023/03/19 00:12:47;;;;;;;5.40;2.60;;;;;;;;;;5050886;28;20013;-66
2023/03/19 00:15:14;;;;;;;19.45;6.35;;;;;;;;;;5050849;28;20638;-66
2023/03/19 00:17:40;;;;;;;17.10;5.88;;;;;;;;;;5050961;28;20029;-68
2023/03/19 00:20:07;;;;;;;10.38;4.38;;;;;;;;;;5055906;28;20052;-70
2023/03/19 00:22:32;;;;;;;20.42;6.70;;;;;;;;;;5071677;28;20515;-67
2023/03/19 00:24:57;;;;;;;21.77;7.10;;;;;;;;;;5075867;28;20030;-71
2023/03/19 00:27:29;;;;;;;27.10;7.82;;;;;;;;;;5072757;28;20047;-67
2023/03/19 00:29:54;;;;;;;49.13;12.73;;;;;;;;;;5070941;28;20034;-67
2023/03/19 00:32:20;;;;;;;20.25;5.60;;;;;;;;;;5070636;28;20575;-68
2023/03/19 00:34:46;;;;;;;16.42;4.90;;;;;;;;;;5071000;28;20032;-67
2023/03/19 00:37:12;;;;;;;22.23;6.60;;;;;;;;;;5070263;28;20021;-68
2023/03/19 00:39:37;;;;;;;20.55;5.40;;;;;;;;;;5070782;28;20093;-66
2023/03/19 00:42:03;;;;;;;19.48;5.32;;;;;;;;;;5070208;28;20028;-66
2023/03/19 00:44:29;;;;;;;16.35;5.07;;;;;;;;;;5070657;28;20103;-67
2023/03/19 00:46:54;;;;;;;46.53;16.35;;;;;;;;;;5068962;28;20191;-67
2023/03/19 00:49:20;;;;;;;18.90;5.78;;;;;;;;;;5070628;28;20040;-71
2023/03/19 00:51:45;;;;;;;9.48;3.53;;;;;;;;;;5070566;28;20181;-67
2023/03/19 00:54:11;;;;;;;5.40;2.15;;;;;;;;;;5070479;28;20462;-69
2023/03/19 00:56:37;;;;;;;4.50;1.85;;;;;;;;;;5069683;28;20029;-67
2023/03/19 00:59:02;;;;;;;4.07;1.95;;;;;;;;;;5070316;28;20036;-68
2023/03/19 01:01:28;;;;;;;5.63;1.95;;;;;;;;;;5070077;28;20115;-67
2023/03/19 01:03:53;;;;;;;3.78;1.70;;;;;;;;;;5070202;28;20029;-67
2023/03/19 01:06:18;;;;;;;4.28;1.85;;;;;;;;;;5070121;28;20056;-67
2023/03/19 01:08:44;;;;;;;5.20;2.00;;;;;;;;;;5070733;28;20025;-67
2023/03/19 01:11:13;;;;;;;4.72;2.03;;;;;;;;;;5070037;28;20452;-67
2023/03/19 01:13:39;;;;;;;5.10;1.90;;;;;;;;;;5071732;28;20059;-68
2023/03/19 01:16:05;;;;;;;4.30;2.00;;;;;;;;;;5073970;28;20052;-70
2023/03/19 01:18:31;;;;;;;4.28;1.70;;;;;;;;;;5074281;28;20029;-70
2023/03/19 01:20:57;;;;;;;5.85;1.80;;;;;;;;;;5074061;28;20082;-72
2023/03/19 01:23:22;;;;;;;8.18;1.83;;;;;;;;;;5074304;28;20036;-77
2023/03/19 01:25:47;;;;;;;5.07;1.50;;;;;;;;;;5074144;28;20025;-70
2023/03/19 01:28:13;;;;;;;4.03;1.90;;;;;;;;;;5074095;28;20021;-76
2023/03/19 01:30:39;;;;;;;3.17;1.70;;;;;;;;;;5072627;28;20062;-69
2023/03/19 01:33:06;;;;;;;4.68;1.70;;;;;;;;;;5074311;28;20023;-73
2023/03/19 01:35:31;;;;;;;7.47;1.95;;;;;;;;;;5073739;28;20496;-69
2023/03/19 01:37:56;;;;;;;4.32;1.70;;;;;;;;;;5073693;28;20482;-74
2023/03/19 01:40:22;;;;;;;3.88;1.60;;;;;;;;;;5072558;28;20131;-75
2023/03/19 01:43:31;;;;;;;5.90;1.85;;;;;;;;;;5073556;28;20460;-73
2023/03/19 01:46:15;;;;;;;3.85;1.65;;;;;;;;;;5073714;28;20032;-73
2023/03/19 01:48:45;;;;;;;2.42;1.50;;;;;;;;;;5073638;28;20541;-68
2023/03/19 01:51:15;;;;;;;3.53;1.60;;;;;;;;;;5073486;28;20097;-67
2023/03/19 01:53:44;;;;;;;4.37;1.40;;;;;;;;;;5073246;28;20031;-67
2023/03/19 01:56:24;;;;;;;5.20;1.73;;;;;;;;;;5073316;28;20099;-66
2023/03/19 01:58:55;;;;;;;1.75;1.27;;;;;;;;;;5073466;28;20031;-67
2023/03/19 02:01:21;;;;;;;3.70;1.50;;;;;;;;;;5073345;28;20020;-66
2023/03/19 02:03:48;;;;;;;10.52;2.00;;;;;;;;;;5073250;28;20016;-67
2023/03/19 02:06:14;;;;;;;3.40;1.60;;;;;;;;;;5073232;28;20024;-67
2023/03/19 02:08:41;;;;;;;2.58;1.25;;;;;;;;;;5072955;28;20016;-68
2023/03/19 02:11:06;;;;;;;3.03;1.20;;;;;;;;;;5077599;28;20039;-67
2023/03/19 02:13:33;;;;;;;3.53;1.30;;;;;;;;;;5072978;28;20024;-67
2023/03/19 02:15:59;;;;;;;5.05;1.30;;;;;;;;;;5073311;28;20649;-67
2023/03/19 02:18:24;;;;;;;2.83;1.20;;;;;;;;;;5072967;28;20024;-67
2023/03/19 02:20:55;;;;;;;4.35;1.13;;;;;;;;;;5073258;28;20028;-73
2023/03/19 02:23:45;;;;;;;2.67;0.90;;;;;;;;;;5072727;28;20583;-73
2023/03/19 02:26:17;;;;;;;2.17;0.80;;;;;;;;;;5072220;28;20064;-72
2023/03/19 02:28:45;;;;;;;4.03;1.08;;;;;;;;;;5072294;28;20039;-70
2023/03/19 02:31:12;;;;;;;1.67;0.85;;;;;;;;;;5076066;28;20371;-74
2023/03/19 02:33:38;;;;;;;1.30;0.77;;;;;;;;;;5072630;28;20028;-72
2023/03/19 02:36:05;;;;;;;2.28;0.73;;;;;;;;;;5073030;28;20025;-77
2023/03/19 02:38:32;;;;;;;3.33;0.95;;;;;;;;;;5072362;28;20039;-70
2023/03/19 02:41:04;;;;;;;2.85;0.88;;;;;;;;;;5072585;28;20053;-69
2023/03/19 02:43:31;;;;;;;3.30;1.02;;;;;;;;;;5072216;28;20029;-71
2023/03/19 02:45:57;;;;;;;1.67;0.70;;;;;;;;;;5072645;28;20028;-70
2023/03/19 02:48:23;;;;;;;5.45;1.13;;;;;;;;;;5072482;28;20020;-71
2023/03/19 02:50:49;;;;;;;3.92;1.10;;;;;;;;;;5072656;28;20024;-69
2023/03/19 02:53:14;;;;;;;4.68;1.10;;;;;;;;;;5072467;28;20040;-71
2023/03/19 02:55:40;;;;;;;3.58;1.35;;;;;;;;;;5072480;28;20031;-67
2023/03/19 02:58:06;;;;;;;3.40;1.38;;;;;;;;;;5071944;28;20029;-74
2023/03/19 03:00:31;;;;;;;3.72;1.48;;;;;;;;;;5072299;28;20025;-73
2023/03/19 03:02:57;;;;;;;3.20;1.27;;;;;;;;;;5072298;28;20032;-73
2023/03/19 03:05:23;;;;;;;3.10;1.02;;;;;;;;;;5071077;28;20377;-76
2023/03/19 03:07:48;;;;;;;4.05;1.20;;;;;;;;;;5072309;28;20522;-76
2023/03/19 03:10:14;;;;;;;1.92;0.90;;;;;;;;;;5072268;28;20032;-75
2023/03/19 03:12:40;;;;;;;1.27;0.75;;;;;;;;;;5072033;28;20525;-73
2023/03/19 03:15:07;;;;;;;2.60;0.80;;;;;;;;;;5072120;28;20102;-76
2023/03/19 03:17:32;;;;;;;2.17;0.90;;;;;;;;;;5071534;28;20340;-77
2023/03/19 03:19:58;;;;;;;3.97;0.80;;;;;;;;;;5071880;28;20105;-77
2023/03/19 03:22:23;;;;;;;3.10;0.95;;;;;;;;;;5071814;28;20098;-73
2023/03/19 03:24:49;;;;;;;2.38;0.80;;;;;;;;;;5074230;28;20081;-79
2023/03/19 03:27:14;;;;;;;1.52;0.70;;;;;;;;;;5077018;28;20012;-75
2023/03/19 03:29:40;;;;;;;1.83;0.90;;;;;;;;;;5071671;28;20031;-75
2023/03/19 03:32:06;;;;;;;1.52;0.63;;;;;;;;;;5071838;28;20024;-73
2023/03/19 03:34:31;;;;;;;2.85;0.68;;;;;;;;;;5071521;28;20121;-79
2023/03/19 03:36:56;;;;;;;2.80;1.00;;;;;;;;;;5071510;28;20028;-77
2023/03/19 03:39:22;;;;;;;1.45;0.50;;;;;;;;;;5070792;28;20068;-76
2023/03/19 03:41:48;;;;;;;3.45;0.70;;;;;;;;;;5071255;28;20082;-80
2023/03/19 03:44:14;;;;;;;4.65;0.90;;;;;;;;;;5071225;28;20140;-80
2023/03/19 03:46:39;;;;;;;1.85;0.77;;;;;;;;;;5071837;28;20013;-78
2023/03/19 03:49:05;;;;;;;1.92;0.60;;;;;;;;;;5071053;28;20027;-77
2023/03/19 03:51:30;;;;;;;1.63;0.60;;;;;;;;;;5072776;28;20027;-76
2023/03/19 03:53:56;;;;;;;1.75;0.60;;;;;;;;;;5071085;28;20016;-77
2023/03/19 03:56:21;;;;;;;2.40;0.63;;;;;;;;;;5071059;28;20031;-76
2023/03/19 03:58:46;;;;;;;3.22;0.70;;;;;;;;;;5070633;28;20068;-77
2023/03/19 04:01:16;;;;;;;3.42;0.80;;;;;;;;;;5068586;28;20025;-79
2023/03/19 04:03:45;;;;;;;4.70;0.80;;;;;;;;;;5071034;28;20039;-76
2023/03/19 04:06:15;;;;;;;2.17;0.70;;;;;;;;;;5071100;28;20120;-77
2023/03/19 04:08:41;;;;;;;5.95;0.70;;;;;;;;;;5070761;28;20016;-74
2023/03/19 04:11:06;;;;;;;2.30;0.60;;;;;;;;;;5070909;28;20031;-77
2023/03/19 04:13:35;;;;;;;2.88;1.40;;;;;;;;;;5071611;28;20028;-80
2023/03/19 04:16:05;;;;;;;3.83;1.60;;;;;;;;;;5070655;28;20020;-79
2023/03/19 04:18:30;;;;;;;2.88;0.85;;;;;;;;;;5070622;28;20365;-73
2023/03/19 04:20:56;;;;;;;2.95;1.00;;;;;;;;;;5070982;28;20476;-79
2023/03/19 04:23:23;;;;;;;1.73;0.70;;;;;;;;;;5070850;28;20048;-67
2023/03/19 04:25:49;;;;;;;2.50;0.70;;;;;;;;;;5070856;28;20025;-67
2023/03/19 04:28:14;;;;;;;4.28;0.70;;;;;;;;;;5070325;28;20077;-67
2023/03/19 04:30:40;;;;;;;3.58;0.80;;;;;;;;;;5070529;28;20107;-77
2023/03/19 04:33:05;;;;;;;1.73;0.70;;;;;;;;;;5070543;28;20062;-76
2023/03/19 04:35:31;;;;;;;2.45;0.65;;;;;;;;;;5070655;28;20024;-66
2023/03/19 04:37:56;;;;;;;1.25;0.50;;;;;;;;;;5070701;28;20025;-79
2023/03/19 04:40:22;;;;;;;2.15;0.80;;;;;;;;;;5070137;28;20069;-77
2023/03/19 04:42:47;;;;;;;2.58;0.60;;;;;;;;;;5070703;28;20056;-78
2023/03/19 04:45:13;;;;;;;2.35;0.60;;;;;;;;;;5070227;28;20021;-79
2023/03/19 04:47:38;;;;;;;1.65;0.60;;;;;;;;;;5070265;28;20595;-74
2023/03/19 04:50:06;;;;;;;1.75;0.50;;;;;;;;;;5070129;28;20563;-74
2023/03/19 04:52:32;;;;;;;0.65;0.40;;;;;;;;;;5070560;28;20112;-76
2023/03/19 04:54:58;;;;;;;2.65;0.52;;;;;;;;;;5070213;28;20618;-67
2023/03/19 04:57:23;;;;;;;1.80;0.55;;;;;;;;;;5070260;28;20024;-67
2023/03/19 04:59:48;;;;;;;1.85;0.60;;;;;;;;;;5070957;28;20032;-69
2023/03/19 05:02:14;;;;;;;1.88;0.50;;;;;;;;;;5070293;28;20108;-67
2023/03/19 05:04:39;;;;;;;1.58;0.50;;;;;;;;;;5070372;28;20515;-76
2023/03/19 05:07:06;;;;;;;1.85;0.60;;;;;;;;;;5070314;28;20464;-69
2023/03/19 05:09:31;;;;;;;2.22;0.60;;;;;;;;;;5069919;28;20515;-70
2023/03/19 05:11:57;;;;;;;3.28;0.90;;;;;;;;;;5069296;28;20036;-68
2023/03/19 05:14:23;;;;;;;1.90;0.60;;;;;;;;;;5070341;28;20649;-68
2023/03/19 05:16:48;;;;;;;1.25;0.50;;;;;;;;;;5070400;28;20505;-68
2023/03/19 05:19:14;;;;;;;1.63;0.60;;;;;;;;;;5069823;28;20028;-70
2023/03/19 05:21:39;;;;;;;2.83;0.57;;;;;;;;;;5070121;28;20033;-68
2023/03/19 05:24:05;;;;;;;1.65;0.50;;;;;;;;;;5069649;28;20445;-68
2023/03/19 05:26:31;;;;;;;2.45;0.50;;;;;;;;;;5070209;28;20162;-69
2023/03/19 05:28:56;;;;;;;1.17;0.50;;;;;;;;;;5069733;28;20184;-68
2023/03/19 05:31:22;;;;;;;1.52;0.50;;;;;;;;;;5070324;28;20033;-67
2023/03/19 05:33:48;;;;;;;2.13;0.70;;;;;;;;;;5070337;28;20109;-73
2023/03/19 05:36:13;;;;;;;2.42;0.50;;;;;;;;;;5069816;28;20020;-67
2023/03/19 05:38:39;;;;;;;1.90;0.52;;;;;;;;;;5068590;28;20028;-66
2023/03/19 05:41:05;;;;;;;2.40;0.77;;;;;;;;;;5069363;28;20041;-66
2023/03/19 05:43:31;;;;;;;3.03;1.17;;;;;;;;;;5069990;28;20115;-66
2023/03/19 05:45:57;;;;;;;2.15;0.73;;;;;;;;;;5069756;28;20159;-67
2023/03/19 05:48:23;;;;;;;3.22;0.70;;;;;;;;;;5070124;28;20052;-66
2023/03/19 05:50:48;;;;;;;2.50;0.70;;;;;;;;;;5070149;28;20125;-70
2023/03/19 05:53:14;;;;;;;1.38;0.50;;;;;;;;;;5069990;28;20486;-66
2023/03/19 05:55:39;;;;;;;2.88;0.93;;;;;;;;;;5069573;28;20040;-66
2023/03/19 05:58:06;;;;;;;2.63;0.80;;;;;;;;;;5069570;28;20028;-67
2023/03/19 06:00:32;;;;;;;3.28;0.90;;;;;;;;;;5070524;28;20024;-66
2023/03/19 06:02:57;;;;;;;1.35;0.60;;;;;;;;;;5073625;28;20373;-68
2023/03/19 06:05:23;;;;;;;4.35;0.80;;;;;;;;;;5073296;28;20108;-67
2023/03/19 06:07:48;;;;;;;3.40;0.82;;;;;;;;;;5076185;28;20032;-67
2023/03/19 06:10:13;;;;;;;2.83;0.70;;;;;;;;;;5074813;28;20032;-66
2023/03/19 06:12:39;;;;;;;3.50;0.77;;;;;;;;;;5074546;28;20077;-66
2023/03/19 06:15:05;;;;;;;3.28;1.35;;;;;;;;;;5054910;28;20120;-67
2023/03/19 06:17:31;;;;;;;3.47;1.00;;;;;;;;;;5074971;28;20327;-66
2023/03/19 06:19:56;;;;;;;3.28;1.00;;;;;;;;;;5072648;28;20392;-67
2023/03/19 06:22:21;;;;;;;0.82;0.60;;;;;;;;;;5073236;28;20033;-67
2023/03/19 06:24:47;;;;;;;3.30;0.90;;;;;;;;;;5073139;28;20028;-67
2023/03/19 06:27:12;;;;;;;2.60;0.90;;;;;;;;;;5072950;28;20379;-66
2023/03/19 06:29:38;;;;;;;3.20;0.80;;;;;;;;;;5072657;28;20021;-67
2023/03/19 06:32:03;;;;;;;3.47;1.35;;;;;;;;;;5072745;28;20621;-67
2023/03/19 06:34:29;;;;;;;4.88;1.20;;;;;;;;;;5072656;28;20479;-66
2023/03/19 06:36:55;;;;;;;5.63;1.10;;;;;;;;;;5072730;28;20032;-66
2023/03/19 06:39:23;;;;;;;3.78;1.10;;;;;;;;;;5072427;28;20591;-66
2023/03/19 06:41:49;;;;;;;3.00;1.35;;;;;;;;;;5072536;28;20033;-66
2023/03/19 06:44:15;;;;;;;2.45;1.00;;;;;;;;;;5072898;28;20110;-66
2023/03/19 06:46:41;;;;;;;1.85;0.80;;;;;;;;;;5072476;28;20036;-66
2023/03/19 06:49:06;;;;;;;3.75;1.20;;;;;;;;;;5072385;28;20086;-67
2023/03/19 06:51:32;;;;;;;4.97;1.45;;;;;;;;;;5072172;28;20585;-68
2023/03/19 06:53:58;;;;;;;6.97;2.83;;;;;;;;;;5072412;28;20396;-70
2023/03/19 06:56:23;;;;;;;3.38;1.85;;;;;;;;;;5072305;28;20029;-66
2023/03/19 06:58:49;;;;;;;3.63;1.20;;;;;;;;;;5072263;28;20388;-66
2023/03/19 07:01:15;;;;;;;2.60;1.23;;;;;;;;;;5072118;28;20416;-67
2023/03/19 07:03:40;;;;;;;2.53;0.88;;;;;;;;;;5075732;28;20021;-70
2023/03/19 07:06:06;;;;;;;2.47;0.98;;;;;;;;;;5074387;28;20388;-74
2023/03/19 07:08:32;;;;;;;3.35;0.88;;;;;;;;;;5078424;28;20581;-69
2023/03/19 07:11:04;;;;;;;3.17;0.90;;;;;;;;;;5072524;28;20089;-76
2023/03/19 07:13:29;;;;;;;3.17;0.90;;;;;;;;;;5081564;28;20480;-75
2023/03/19 07:15:55;;;;;;;2.55;1.00;;;;;;;;;;5081335;28;20096;-64
2023/03/19 07:18:20;;;;;;;3.20;0.80;;;;;;;;;;5081554;28;20028;-72
2023/03/19 07:20:46;;;;;;;5.20;1.23;;;;;;;;;;5081536;28;20088;-70
2023/03/19 07:23:11;;;;;;;4.18;0.80;;;;;;;;;;5081721;28;20078;-67
2023/03/19 07:25:37;;;;;;;6.28;1.15;;;;;;;;;;5079380;28;20044;-66
2023/03/19 07:28:02;;;;;;;2.85;0.90;;;;;;;;;;5081721;28;20096;-68
2023/03/19 07:30:28;;;;;;;2.33;1.10;;;;;;;;;;5077716;28;20048;-68
2023/03/19 07:32:54;;;;;;;2.60;0.80;;;;;;;;;;5080763;28;20032;-66
2023/03/19 07:35:20;;;;;;;2.53;0.80;;;;;;;;;;5075237;28;20032;-67
2023/03/19 07:37:45;;;;;;;3.05;0.82;;;;;;;;;;5079775;28;20380;-64
2023/03/19 07:40:11;;;;;;;3.50;0.90;;;;;;;;;;5071166;28;20066;-64
2023/03/19 07:42:37;;;;;;;1.00;0.60;;;;;;;;;;5071124;28;20115;-65
2023/03/19 07:45:03;;;;;;;4.70;0.60;;;;;;;;;;5071477;28;20025;-65
2023/03/19 07:47:29;;;;;;;1.17;0.60;;;;;;;;;;5071303;28;20028;-66
2023/03/19 07:49:55;;;;;;;1.33;0.50;;;;;;;;;;5071192;28;20107;-66
2023/03/19 07:52:21;;;;;;;1.80;0.90;;;;;;;;;;5071355;28;20028;-64
2023/03/19 07:54:46;;;;;;;3.00;0.88;;;;;;;;;;5071553;28;20023;-65
2023/03/19 07:57:12;;;;;;;3.38;0.70;;;;;;;;;;5070926;28;20035;-65
2023/03/19 07:59:37;;;;;;;1.80;0.50;;;;;;;;;;5071000;28;20098;-65
2023/03/19 08:02:03;;;;;;;1.33;0.60;;;;;;;;;;5070743;28;20051;-68
2023/03/19 08:04:28;;;;;;;4.47;0.57;;;;;;;;;;5071100;28;20023;-69
2023/03/19 08:06:54;;;;;;;3.90;0.60;;;;;;;;;;5070536;28;20112;-68
2023/03/19 08:09:19;;;;;;;1.20;0.40;;;;;;;;;;5070961;28;20074;-65
2023/03/19 08:11:45;;;;;;;1.23;0.50;;;;;;;;;;5070926;28;20044;-65
2023/03/19 08:14:10;;;;;;;1.88;0.50;;;;;;;;;;5070991;28;20028;-66
2023/03/19 08:16:36;;;;;;;2.10;0.70;;;;;;;;;;5070755;28;20020;-66
2023/03/19 08:19:01;;;;;;;3.05;0.90;;;;;;;;;;5070732;28;20628;-67
2023/03/19 08:21:27;;;;;;;2.95;0.80;;;;;;;;;;5070321;28;20032;-65
2023/03/19 08:23:52;;;;;;;2.45;0.77;;;;;;;;;;5070203;28;20028;-68
2023/03/19 08:26:18;;;;;;;4.15;0.98;;;;;;;;;;5070616;28;20396;-72
2023/03/19 08:28:43;;;;;;;1.92;0.70;;;;;;;;;;5070681;28;20074;-75
2023/03/19 08:31:12;;;;;;;2.72;0.77;;;;;;;;;;5070418;28;20032;-73
2023/03/19 08:33:39;;;;;;;3.30;0.85;;;;;;;;;;5070679;28;20107;-73
2023/03/19 08:36:07;;;;;;;1.75;0.60;;;;;;;;;;5076053;28;20029;-71
2023/03/19 08:38:32;;;;;;;2.20;0.60;;;;;;;;;;5049674;28;20481;-69
2023/03/19 08:41:01;;;;;;;3.00;0.80;;;;;;;;;;5048360;28;20056;-74
2023/03/19 08:43:28;;;;;;;2.13;0.70;;;;;;;;;;5050792;28;20049;-71
2023/03/19 08:45:53;;;;;;;3.50;0.60;;;;;;;;;;5048663;28;20037;-72
2023/03/19 08:48:19;;;;;;;2.33;0.60;;;;;;;;;;5048919;28;20028;-73
2023/03/19 08:50:44;;;;;;;2.47;0.70;;;;;;;;;;5050269;28;20500;-73
2023/03/19 08:53:10;;;;;;;3.45;0.70;;;;;;;;;;5050108;28;20028;-70
2023/03/19 08:55:35;;;;;;;1.92;0.77;;;;;;;;;;5053944;28;20088;-69
2023/03/19 08:58:00;;;;;;;2.25;0.70;;;;;;;;;;5067500;28;20020;-70
2023/03/19 09:00:26;;;;;;;2.58;0.60;;;;;;;;;;5049893;28;20104;-71
2023/03/19 09:02:52;;;;;;;0.88;0.52;;;;;;;;;;5054086;28;20039;-69
2023/03/19 09:05:21;;;;;;;3.17;0.60;;;;;;;;;;5070903;28;20032;-71
2023/03/19 09:07:47;;;;;;;1.63;0.40;;;;;;;;;;5074025;28;20097;-70
2023/03/19 09:10:12;;;;;;;2.03;0.50;;;;;;;;;;5072112;28;20441;-65
2023/03/19 09:12:37;;;;;;;0.85;0.40;;;;;;;;;;5056889;28;20104;-71
2023/03/19 09:15:03;;;;;;;1.05;0.40;;;;;;;;;;5050439;28;20842;-69
2023/03/19 09:17:29;;;;;;;3.22;1.20;;;;;;;;;;5049968;28;20044;-69
2023/03/19 09:19:54;;;;;;;1.27;0.60;;;;;;;;;;5050081;28;20044;-68
2023/03/19 09:22:20;;;;;;;0.73;0.40;;;;;;;;;;5050126;28;20036;-66
2023/03/19 09:24:45;;;;;;;1.08;0.52;;;;;;;;;;5050332;28;20393;-70
2023/03/19 09:27:10;;;;;;;1.38;0.50;;;;;;;;;;5049705;28;20025;-70
2023/03/19 09:29:36;;;;;;;1.10;0.60;;;;;;;;;;5064121;28;20494;-68
2023/03/19 09:32:01;;;;;;;1.85;0.70;;;;;;;;;;5076492;28;20040;-66
2023/03/19 09:34:27;;;;;;;1.90;0.60;;;;;;;;;;5078549;28;20055;-66
2023/03/19 09:36:52;;;;;;;1.08;0.57;;;;;;;;;;5075831;28;20051;-74
2023/03/19 09:39:18;;;;;;;1.92;0.80;;;;;;;;;;5076480;28;20068;-69
2023/03/19 09:41:58;;;;;;;2.50;0.60;;;;;;;;;;5073484;28;20384;-69
2023/03/19 09:44:34;;;;;;;1.77;0.73;;;;;;;;;;5072633;28;20036;-70
2023/03/19 09:47:02;;;;;;;1.33;0.60;;;;;;;;;;5076366;28;20089;-66
2023/03/19 09:49:32;;;;;;;1.05;0.47;;;;;;;;;;5082674;28;20352;-66
2023/03/19 09:51:57;;;;;;;1.23;0.50;;;;;;;;;;5073343;28;20028;-66
2023/03/19 09:54:34;;;;;;;1.10;0.50;;;;;;;;;;5081064;28;20312;-69
2023/03/19 09:57:00;;;;;;;1.58;0.60;;;;;;;;;;5065298;28;20056;-69
2023/03/19 09:59:27;;;;;;;0.85;0.63;;;;;;;;;;5063175;28;20044;-69
2023/03/19 10:02:11;;;;;;;1.38;0.55;;;;;;;;;;5062716;28;20208;-68
2023/03/19 10:05:06;;;;;;;2.35;0.55;;;;;;;;;;5062794;28;20029;-68
2023/03/19 10:07:55;;;;;;;1.52;0.50;;;;;;;;;;5062879;28;20034;-72
2023/03/19 10:10:23;;;;;;;3.30;2.10;;;;;;;;;;5059348;28;20090;-68
2023/03/19 10:12:51;;;;;;;1.00;0.60;;;;;;;;;;5053392;28;20029;-68
2023/03/19 10:15:26;;;;;;;2.83;0.60;;;;;;;;;;5052206;28;20079;-67
2023/03/19 10:18:16;;;;;;;1.33;0.40;;;;;;;;;;5053181;28;20029;-65
2023/03/19 10:20:47;;;;;;;0.95;0.40;;;;;;;;;;5057991;28;20044;-66
2023/03/19 10:23:36;;;;;;;0.73;0.50;;;;;;;;;;5059522;28;20024;-66
2023/03/19 10:26:04;;;;;;;1.30;0.38;;;;;;;;;;5064090;28;20013;-67
2023/03/19 10:28:29;;;;;;;0.32;0.30;;;;;;;;;;5056208;28;20025;-65
2023/03/19 10:31:04;;;;;;;0.88;0.43;;;;;;;;;;5061987;28;20079;-70
2023/03/19 10:33:43;;;;;;;0.22;0.22;;;;;;;;;;5055289;28;20036;-67
2023/03/19 10:36:10;;;;;;;1.23;0.52;;;;;;;;;;5077468;28;20020;-66
2023/03/19 10:38:42;;;;;;;2.50;0.50;;;;;;;;;;5083533;28;20215;-67
2023/03/19 10:41:30;;;;;;;0.45;0.20;;;;;;;;;;5083627;28;20036;-67
2023/03/19 10:44:00;;;;;;;0.82;0.30;;;;;;;;;;5083946;28;20304;-66
2023/03/19 10:46:27;;;;;;;1.58;0.30;;;;;;;;;;5083286;28;20028;-67
2023/03/19 10:48:52;;;;;;;0.28;0.20;;;;;;;;;;5081604;28;20028;-67
2023/03/19 10:51:25;;;;;;;0.57;0.20;;;;;;;;;;5081475;28;20016;-65
2023/03/19 10:53:54;;;;;;;0.75;0.28;;;;;;;;;;5083722;28;20398;-66
2023/03/19 10:56:29;;;;;;;0.88;0.30;;;;;;;;;;5075318;28;20100;-68
2023/03/19 10:59:04;;;;;;;0.88;0.30;;;;;;;;;;5071271;28;20035;-66
2023/03/19 11:01:39;;;;;;;0.50;0.20;;;;;;;;;;5082304;28;20141;-67
2023/03/19 11:04:16;;;;;;;0.52;0.40;;;;;;;;;;5083205;28;20025;-65
2023/03/19 11:06:48;;;;;;;1.33;0.40;;;;;;;;;;5082514;28;20020;-67
2023/03/19 11:09:21;;;;;;;0.70;0.30;;;;;;;;;;5081759;28;20031;-66
2023/03/19 11:11:57;;;;;;;1.05;0.60;;;;;;;;;;5081325;28;20027;-65
2023/03/19 11:14:24;;;;;;;1.38;0.50;;;;;;;;;;5082212;28;20130;-70
2023/03/19 11:16:53;;;;;;;1.05;0.38;;;;;;;;;;5083246;28;20021;-72
2023/03/19 11:19:26;;;;;;;4.22;0.70;;;;;;;;;;5082277;28;20051;-74
2023/03/19 11:21:59;;;;;;;2.60;0.55;;;;;;;;;;5082735;28;20032;-69
2023/03/19 11:24:25;;;;;;;1.08;0.40;;;;;;;;;;5082551;28;20211;-69
2023/03/19 11:26:54;;;;;;;1.05;0.28;;;;;;;;;;5082437;28;20211;-71
2023/03/19 11:29:20;;;;;;;1.52;0.40;;;;;;;;;;5081754;28;20028;-67
2023/03/19 11:32:10;;;;;;;1.08;0.40;;;;;;;;;;5081725;28;20353;-66
2023/03/19 11:35:00;;;;;;;0.60;0.50;;;;;;;;;;5082820;28;20028;-64
2023/03/19 11:37:47;;;;;;;0.98;0.30;;;;;;;;;;5082938;28;20267;-69
2023/03/19 11:40:41;;;;;;;0.43;0.38;;;;;;;;;;5082538;28;20377;-72
2023/03/19 11:43:22;;;;;;;0.82;0.40;;;;;;;;;;5080287;28;20051;-71
2023/03/19 11:46:06;;;;;;;2.65;0.70;;;;;;;;;;5082222;28;20036;-68
2023/03/19 11:48:48;;;;;;;1.67;0.50;;;;;;;;;;5078646;28;20040;-73
2023/03/19 11:51:24;;;;;;;0.98;0.60;;;;;;;;;;5079620;28;20032;-69
2023/03/19 11:54:04;;;;;;;2.60;1.00;;;;;;;;;;5071833;28;20020;-67
2023/03/19 11:56:54;;;;;;;4.28;0.90;;;;;;;;;;5086796;28;20043;-67
2023/03/19 11:59:34;;;;;;;2.03;0.70;;;;;;;;;;5080337;28;20338;-68
2023/03/19 12:02:36;;;;;;;1.80;0.70;;;;;;;;;;5080327;28;20029;-71
2023/03/19 12:05:05;;;;;;;1.98;0.50;;;;;;;;;;5081389;28;20035;-71
2023/03/19 12:07:45;;;;;;;1.05;0.55;;;;;;;;;;5080765;28;20036;-70
2023/03/19 12:10:37;;;;;;;0.57;0.40;;;;;;;;;;5081856;28;20017;-78
2023/03/19 12:13:26;;;;;;;1.08;0.40;;;;;;;;;;5077559;28;20110;-76
2023/03/19 12:16:02;;;;;;;0.57;0.30;;;;;;;;;;5082057;28;20031;-74
2023/03/19 12:19:10;;;;;;;0.30;0.30;;;;;;;;;;5082117;28;20316;-71
2023/03/19 12:21:51;;;;;;;1.90;0.50;;;;;;;;;;5081813;28;20032;-70
2023/03/19 12:24:54;;;;;;;1.45;0.82;;;;;;;;;;5081912;28;20051;-72
2023/03/19 12:28:03;;;;;;;0.82;0.52;;;;;;;;;;5080017;28;20416;-75
2023/03/19 12:30:48;;;;;;;1.00;0.40;;;;;;;;;;5071017;28;20032;-68
2023/03/19 12:33:39;;;;;;;1.63;0.52;;;;;;;;;;5081441;28;20324;-74
2023/03/19 12:36:10;;;;;;;1.27;0.32;;;;;;;;;;5081382;28;20028;-73
2023/03/19 12:38:47;;;;;;;0.40;0.30;;;;;;;;;;5079570;28;20024;-68
2023/03/19 12:41:35;;;;;;;1.00;0.50;;;;;;;;;;5076661;28;20036;-66
2023/03/19 12:44:05;;;;;;;0.88;0.40;;;;;;;;;;5061334;28;20037;-66
2023/03/19 12:46:36;;;;;;;0.73;0.50;;;;;;;;;;5069194;28;20047;-65
2023/03/19 12:49:15;;;;;;;1.88;0.43;;;;;;;;;;5076480;28;20029;-67
2023/03/19 12:51:52;;;;;;;0.50;0.40;;;;;;;;;;5068675;28;20024;-67
2023/03/19 12:54:22;;;;;;;1.08;0.40;;;;;;;;;;5080141;28;20157;-67
2023/03/19 12:56:47;;;;;;;;;;;;;;;;;;5072306;28;20024;-66
2023/03/19 12:59:41;;;;;;;0.63;0.30;;;;;;;;;;5080773;28;19951;-66
2023/03/19 13:03:00;;;;;;;0.95;0.40;;;;;;;;;;5080987;28;20298;-67
2023/03/19 13:05:37;;;;;;;0.20;0.20;;;;;;;;;;5052141;28;20045;-68
2023/03/19 13:08:13;;;;;;;0.73;0.40;;;;;;;;;;5072309;28;20032;-68
2023/03/19 13:10:39;;;;;;;1.42;0.47;;;;;;;;;;5084059;28;20036;-67
2023/03/19 13:13:31;;;;;;;0.38;0.20;;;;;;;;;;5072887;28;20033;-66
2023/03/19 13:16:06;;;;;;;0.32;0.30;;;;;;;;;;5074045;28;20218;-66
2023/03/19 13:18:36;;;;;;;0.82;0.30;;;;;;;;;;5084471;28;20220;-66
2023/03/19 13:21:29;;;;;;;0.20;0.20;;;;;;;;;;5085162;28;20031;-68
2023/03/19 13:24:08;;;;;;;0.30;0.15;;;;;;;;;;5085085;28;20034;-73
2023/03/19 13:26:35;;;;;;;0.25;0.10;;;;;;;;;;5084608;28;20319;-66
2023/03/19 13:29:16;;;;;;;0.75;0.10;;;;;;;;;;5081799;28;20063;-68
2023/03/19 13:31:42;;;;;;;;;;;;;;;;;;5081264;28;20059;-65
2023/03/19 13:34:20;;;;;;;1.17;0.30;;;;;;;;;;5082994;28;19915;-67
2023/03/19 13:37:00;;;;;;;0.10;0.10;;;;;;;;;;5081538;28;20075;-68
2023/03/19 13:39:29;;;;;;;0.30;0.30;;;;;;;;;;5081472;28;20082;-70
2023/03/19 13:42:36;;;;;;;0.25;0.20;;;;;;;;;;5082372;28;20056;-69
2023/03/19 13:45:34;;;;;;;0.30;0.20;;;;;;;;;;5081523;28;20485;-66
2023/03/19 13:48:25;;;;;;;0.63;0.20;;;;;;;;;;5082713;28;20040;-67
2023/03/19 13:51:22;;;;;;;1.20;0.43;;;;;;;;;;5083664;28;20032;-70
2023/03/19 13:54:00;;;;;;;0.88;0.20;;;;;;;;;;5083410;28;20067;-69
2023/03/19 13:56:26;;;;;;;1.58;0.40;;;;;;;;;;5082893;28;20044;-71
2023/03/19 13:59:25;;;;;;;1.42;0.40;;;;;;;;;;5082883;28;20508;-70
2023/03/19 14:01:51;;;;;;;2.42;0.50;;;;;;;;;;5082936;28;20028;-71
2023/03/19 14:04:26;;;;;;;1.33;0.57;;;;;;;;;;5082829;28;20362;-70
2023/03/19 14:07:17;;;;;;;1.05;0.45;;;;;;;;;;5082521;28;20091;-71
2023/03/19 14:10:01;;;;;;;1.42;0.30;;;;;;;;;;5080302;28;20028;-68
2023/03/19 14:12:34;;;;;;;0.75;0.28;;;;;;;;;;5082756;28;20070;-70
2023/03/19 14:14:59;;;;;;;0.57;0.30;;;;;;;;;;5083219;28;20051;-72
2023/03/19 14:17:40;;;;;;;0.50;0.30;;;;;;;;;;5083015;28;20020;-70
2023/03/19 14:20:11;;;;;;;0.50;0.38;;;;;;;;;;5083021;28;20028;-70
2023/03/19 14:23:09;;;;;;;1.70;0.70;;;;;;;;;;5082093;28;20315;-71
2023/03/19 14:26:15;;;;;;;2.22;0.57;;;;;;;;;;5080814;28;20067;-70
2023/03/19 14:28:57;;;;;;;1.00;0.30;;;;;;;;;;5083138;28;20024;-69
2023/03/19 14:31:30;;;;;;;1.20;0.22;;;;;;;;;;5082493;28;20028;-70
2023/03/19 14:34:10;;;;;;;0.82;0.30;;;;;;;;;;5082674;28;20033;-65
2023/03/19 14:36:42;;;;;;;0.90;0.32;;;;;;;;;;5082647;28;20310;-71
2023/03/19 14:39:17;;;;;;;0.52;0.20;;;;;;;;;;5082137;28;20190;-67
2023/03/19 14:41:47;;;;;;;0.30;0.20;;;;;;;;;;5082073;28;20036;-66
2023/03/19 14:44:31;;;;;;;0.22;0.13;;;;;;;;;;5082139;28;20277;-71
2023/03/19 14:47:00;;;;;;;0.60;0.30;;;;;;;;;;5082185;28;20037;-70
2023/03/19 14:49:31;;;;;;;0.82;0.30;;;;;;;;;;5082008;28;20044;-70
2023/03/19 14:52:13;;;;;;;0.82;0.30;;;;;;;;;;5081892;28;20033;-69
2023/03/19 14:54:50;;;;;;;0.20;0.20;;;;;;;;;;5082351;28;20043;-66
2023/03/19 14:57:18;;;;;;;0.65;0.20;;;;;;;;;;5081919;28;20040;-67
2023/03/19 14:59:44;;;;;;;0.47;0.20;;;;;;;;;;5082641;28;20356;-70
2023/03/19 15:02:25;;;;;;;0.22;0.20;;;;;;;;;;5081902;28;20032;-66